Time;durP1;ratioP1;P1;durP2;ratioP2;P2;SDS_P1;SDS_P2;PMS_P1;PMS_P2;Temp;Humidity;BMP_temperature;BMP_pressure;BME280_temperature;BME280_humidity;BME280_pressure;Samples;Min_cycle;Max_cycle;Signal;HPM_P1;HPM_P2
2023/05/08 00:00:18;;;;;;;1.50;1.40;;;;;;;;;;5141979;27;20031;-81
2023/05/08 00:02:44;;;;;;;1.58;1.30;;;;;;;;;;5142379;27;20110;-81
2023/05/08 00:05:09;;;;;;;1.52;1.33;;;;;;;;;;5142492;27;20027;-81
2023/05/08 00:07:36;;;;;;;1.58;1.45;;;;;;;;;;5161479;27;20077;-82
2023/05/08 00:10:02;;;;;;;1.70;1.40;;;;;;;;;;5159016;27;20030;-80
2023/05/08 00:12:27;;;;;;;1.50;1.40;;;;;;;;;;5139953;27;20038;-81
2023/05/08 00:14:53;;;;;;;1.40;1.30;;;;;;;;;;5122517;27;20163;-81
2023/05/08 00:17:18;;;;;;;1.52;1.40;;;;;;;;;;5122528;27;20027;-81
2023/05/08 00:19:43;;;;;;;1.55;1.27;;;;;;;;;;5139568;27;20115;-81
2023/05/08 00:22:09;;;;;;;1.42;1.33;;;;;;;;;;5122187;27;20034;-81
2023/05/08 00:24:35;;;;;;;1.60;1.50;;;;;;;;;;5139737;27;20489;-82
2023/05/08 00:27:00;;;;;;;1.98;1.58;;;;;;;;;;5138520;27;20031;-82
2023/05/08 00:29:25;;;;;;;1.40;1.30;;;;;;;;;;5122724;27;20027;-82
2023/05/08 00:31:51;;;;;;;1.55;1.45;;;;;;;;;;5139729;27;20496;-82
2023/05/08 00:34:16;;;;;;;1.50;1.40;;;;;;;;;;5139208;27;20026;-83
2023/05/08 00:36:42;;;;;;;1.48;1.38;;;;;;;;;;5139133;27;20031;-83
2023/05/08 00:39:07;;;;;;;1.50;1.40;;;;;;;;;;5139469;27;20113;-82
2023/05/08 00:41:32;;;;;;;1.35;1.25;;;;;;;;;;5139123;27;20026;-83
2023/05/08 00:43:58;;;;;;;1.30;1.30;;;;;;;;;;5138945;27;20540;-81
2023/05/08 00:46:23;;;;;;;1.55;1.40;;;;;;;;;;5122050;27;20071;-82
2023/05/08 00:48:49;;;;;;;2.72;1.40;;;;;;;;;;5121878;27;20369;-81
2023/05/08 00:51:15;;;;;;;1.45;1.35;;;;;;;;;;5140021;27;20038;-81
2023/05/08 00:53:42;;;;;;;1.20;1.20;;;;;;;;;;5126680;27;20080;-81
2023/05/08 00:56:13;;;;;;;1.63;1.42;;;;;;;;;;5129851;27;20423;-81
2023/05/08 00:58:39;;;;;;;1.52;1.42;;;;;;;;;;5143841;27;20453;-82
2023/05/08 01:01:05;;;;;;;2.03;1.58;;;;;;;;;;5125172;27;20026;-81
2023/05/08 01:03:32;;;;;;;1.50;1.35;;;;;;;;;;5115678;27;20370;-82
2023/05/08 01:05:58;;;;;;;1.33;1.23;;;;;;;;;;5125961;27;20042;-81
2023/05/08 01:08:24;;;;;;;1.50;1.40;;;;;;;;;;5139633;27;20027;-81
2023/05/08 01:11:14;;;;;;;1.52;1.42;;;;;;;;;;5121617;27;20027;-81
2023/05/08 01:14:03;;;;;;;1.40;1.30;;;;;;;;;;5138741;27;20034;-81
2023/05/08 01:16:37;;;;;;;1.48;1.38;;;;;;;;;;5139239;27;20083;-82
2023/05/08 01:19:20;;;;;;;1.67;1.40;;;;;;;;;;5156838;27;20380;-81
2023/05/08 01:21:52;;;;;;;1.75;1.40;;;;;;;;;;5138556;27;20022;-81
2023/05/08 01:24:39;;;;;;;2.05;1.30;;;;;;;;;;5138212;27;20022;-82
2023/05/08 01:27:23;;;;;;;1.45;1.35;;;;;;;;;;5138141;27;20092;-81
2023/05/08 01:30:07;;;;;;;1.38;1.27;;;;;;;;;;5156839;27;20376;-81
2023/05/08 01:32:39;;;;;;;1.50;1.40;;;;;;;;;;5138013;27;20106;-80
2023/05/08 01:35:07;;;;;;;1.55;1.45;;;;;;;;;;5137891;27;20105;-81
2023/05/08 01:37:41;;;;;;;2.05;1.30;;;;;;;;;;5156188;27;20054;-81
2023/05/08 01:40:15;;;;;;;;;;;;;;;;;;5121267;27;20029;-81
2023/05/08 01:42:46;;;;;;;;;;;;;;;;;;5157096;27;19911;-80
2023/05/08 01:45:31;;;;;;;1.50;1.38;;;;;;;;;;5137741;27;20305;-81
2023/05/08 01:48:05;;;;;;;2.47;1.40;;;;;;;;;;5137644;27;20022;-82
2023/05/08 01:50:32;;;;;;;;;;;;;;;;;;5121064;27;20030;-82
2023/05/08 01:53:04;;;;;;;1.10;1.10;;;;;;;;;;5120509;27;19914;-81
2023/05/08 01:55:34;;;;;;;1.20;1.20;;;;;;;;;;5137517;27;20072;-82
2023/05/08 01:58:01;;;;;;;1.60;1.20;;;;;;;;;;5137593;27;20105;-82
2023/05/08 02:00:30;;;;;;;1.30;1.20;;;;;;;;;;5120246;27;20026;-83
2023/05/08 02:02:56;;;;;;;2.78;1.83;;;;;;;;;;5156028;27;20052;-81
2023/05/08 02:05:23;;;;;;;1.60;1.50;;;;;;;;;;5137753;27;20019;-81
2023/05/08 02:07:49;;;;;;;1.45;1.35;;;;;;;;;;5119913;27;20553;-81
2023/05/08 02:10:15;;;;;;;1.73;1.42;;;;;;;;;;5137694;27;20030;-81
2023/05/08 02:12:42;;;;;;;1.42;1.33;;;;;;;;;;5120103;27;20058;-82
2023/05/08 02:15:08;;;;;;;1.70;1.38;;;;;;;;;;5119976;27;20026;-81
2023/05/08 02:17:35;;;;;;;1.58;1.48;;;;;;;;;;5137091;27;20026;-81
2023/05/08 02:20:02;;;;;;;1.60;1.50;;;;;;;;;;5137104;27;20031;-81
2023/05/08 02:22:29;;;;;;;3.63;1.35;;;;;;;;;;5120064;27;20026;-81
2023/05/08 02:24:56;;;;;;;1.50;1.40;;;;;;;;;;5119872;27;20397;-81
2023/05/08 02:27:24;;;;;;;1.50;1.40;;;;;;;;;;5137334;27;20111;-81
2023/05/08 02:29:50;;;;;;;1.27;1.23;;;;;;;;;;5137067;27;20027;-82
2023/05/08 02:32:17;;;;;;;1.48;1.33;;;;;;;;;;5155485;27;20026;-82
2023/05/08 02:34:43;;;;;;;1.35;1.25;;;;;;;;;;5136925;27;20083;-82
2023/05/08 02:37:09;;;;;;;1.40;1.30;;;;;;;;;;5136779;27;20023;-82
2023/05/08 02:39:35;;;;;;;1.55;1.45;;;;;;;;;;5119884;27;20033;-81
2023/05/08 02:42:01;;;;;;;1.42;1.35;;;;;;;;;;5102740;27;20035;-78
2023/05/08 02:44:26;;;;;;;2.33;1.40;;;;;;;;;;5155546;27;20030;-82
2023/05/08 02:46:59;;;;;;;1.55;1.40;;;;;;;;;;5136731;27;20026;-81
2023/05/08 02:49:36;;;;;;;1.30;1.30;;;;;;;;;;5154863;27;20019;-81
2023/05/08 02:52:10;;;;;;;1.52;1.42;;;;;;;;;;5136771;27;20486;-81
2023/05/08 02:54:42;;;;;;;2.15;1.10;;;;;;;;;;5136632;27;20081;-81
2023/05/08 02:57:32;;;;;;;1.50;1.40;;;;;;;;;;5137448;27;20457;-81
2023/05/08 03:00:07;;;;;;;1.40;1.30;;;;;;;;;;5154983;27;20468;-81
2023/05/08 03:02:36;;;;;;;1.40;1.30;;;;;;;;;;5136533;27;20027;-81
2023/05/08 03:05:09;;;;;;;1.52;1.42;;;;;;;;;;5155102;27;20098;-81
2023/05/08 03:07:37;;;;;;;1.50;1.40;;;;;;;;;;5136491;27;20049;-81
2023/05/08 03:10:05;;;;;;;1.52;1.40;;;;;;;;;;5119324;27;20027;-82
2023/05/08 03:12:32;;;;;;;1.40;1.30;;;;;;;;;;5136454;27;20022;-81
2023/05/08 03:15:03;;;;;;;1.70;1.60;;;;;;;;;;5136443;27;20106;-81
2023/05/08 03:17:31;;;;;;;6.18;1.40;;;;;;;;;;5119247;27;20019;-81
2023/05/08 03:20:00;;;;;;;1.55;1.40;;;;;;;;;;5136209;27;20521;-82
2023/05/08 03:22:26;;;;;;;1.48;1.38;;;;;;;;;;5136709;27;20030;-81
2023/05/08 03:24:52;;;;;;;1.50;1.40;;;;;;;;;;5136361;27;20030;-81
2023/05/08 03:27:19;;;;;;;6.90;1.70;;;;;;;;;;5119398;27;20026;-82
2023/05/08 03:29:44;;;;;;;1.42;1.33;;;;;;;;;;5136159;27;20034;-80
2023/05/08 03:32:10;;;;;;;1.50;1.40;;;;;;;;;;5118946;27;20026;-82
2023/05/08 03:34:36;;;;;;;1.50;1.40;;;;;;;;;;5119045;27;20022;-81
2023/05/08 03:37:02;;;;;;;1.63;1.50;;;;;;;;;;5136190;27;20480;-81
2023/05/08 03:39:27;;;;;;;1.40;1.30;;;;;;;;;;5154653;27;20118;-82
2023/05/08 03:41:54;;;;;;;1.40;1.30;;;;;;;;;;5136110;27;20481;-82
2023/05/08 03:44:20;;;;;;;1.70;1.60;;;;;;;;;;5118890;27;20362;-84
2023/05/08 03:46:47;;;;;;;3.00;1.50;;;;;;;;;;5155361;27;20154;-82
2023/05/08 03:49:13;;;;;;;1.45;1.35;;;;;;;;;;5119623;27;20397;-83
2023/05/08 03:51:39;;;;;;;2.30;1.50;;;;;;;;;;5154445;27;20054;-82
2023/05/08 03:54:04;;;;;;;1.60;1.50;;;;;;;;;;5118769;27;20053;-81
2023/05/08 03:56:30;;;;;;;1.58;1.48;;;;;;;;;;5154392;27;20481;-79
2023/05/08 03:59:03;;;;;;;2.13;1.50;;;;;;;;;;5155832;27;20030;-82
2023/05/08 04:01:38;;;;;;;2.88;1.63;;;;;;;;;;5138869;27;20023;-83
2023/05/08 04:04:38;;;;;;;1.65;1.55;;;;;;;;;;5139845;27;20026;-83
2023/05/08 04:07:14;;;;;;;5.28;2.30;;;;;;;;;;5137730;27;20127;-83
2023/05/08 04:10:07;;;;;;;6.05;2.10;;;;;;;;;;5120145;27;20031;-81
2023/05/08 04:12:56;;;;;;;3.25;2.08;;;;;;;;;;5137706;27;20039;-81
2023/05/08 04:15:27;;;;;;;4.32;1.80;;;;;;;;;;5120316;27;20131;-85
2023/05/08 04:17:55;;;;;;;4.72;2.47;;;;;;;;;;5102358;27;20518;-81
2023/05/08 04:20:21;;;;;;;3.03;2.10;;;;;;;;;;5119107;27;20031;-84
2023/05/08 04:22:49;;;;;;;3.83;2.17;;;;;;;;;;5120639;27;20030;-87
2023/05/08 04:25:16;;;;;;;5.75;2.05;;;;;;;;;;5102200;27;20023;-87
2023/05/08 04:27:43;;;;;;;7.03;2.67;;;;;;;;;;5119288;27;20023;-81
2023/05/08 04:30:09;;;;;;;5.85;2.47;;;;;;;;;;5119359;27;20492;-83
2023/05/08 04:32:36;;;;;;;4.45;2.47;;;;;;;;;;5118328;27;20027;-85
2023/05/08 04:35:02;;;;;;;5.15;2.47;;;;;;;;;;5118600;27;20469;-83
2023/05/08 04:37:30;;;;;;;9.27;2.80;;;;;;;;;;5118348;27;20106;-83
2023/05/08 04:39:56;;;;;;;4.60;2.40;;;;;;;;;;5118654;27;20050;-84
2023/05/08 04:42:23;;;;;;;5.93;2.78;;;;;;;;;;5101353;27;20448;-83
2023/05/08 04:44:48;;;;;;;6.07;2.83;;;;;;;;;;5101314;27;20053;-83
2023/05/08 04:47:13;;;;;;;5.13;2.80;;;;;;;;;;5118276;27;20066;-83
2023/05/08 04:49:39;;;;;;;5.35;2.80;;;;;;;;;;5119261;27;20045;-82
2023/05/08 04:52:05;;;;;;;4.38;2.60;;;;;;;;;;5119423;27;20038;-82
2023/05/08 04:54:31;;;;;;;8.65;3.15;;;;;;;;;;5101612;27;20031;-87
2023/05/08 04:56:56;;;;;;;6.22;3.00;;;;;;;;;;5118752;27;20031;-82
2023/05/08 04:59:23;;;;;;;19.63;6.30;;;;;;;;;;5118805;27;20106;-83
2023/05/08 05:01:49;;;;;;;27.33;7.47;;;;;;;;;;5085032;27;20027;-84
2023/05/08 05:04:15;;;;;;;33.97;8.63;;;;;;;;;;5118489;27;20023;-84
2023/05/08 05:06:43;;;;;;;23.65;8.52;;;;;;;;;;5101139;27;20050;-84
2023/05/08 05:09:10;;;;;;;23.45;8.07;;;;;;;;;;5101338;27;20053;-85
2023/05/08 05:11:36;;;;;;;25.55;8.27;;;;;;;;;;5118479;27;20035;-86
2023/05/08 05:14:01;;;;;;;22.42;7.72;;;;;;;;;;5118152;27;20029;-83
2023/05/08 05:16:26;;;;;;;21.30;6.90;;;;;;;;;;5118385;27;20500;-84
2023/05/08 05:18:52;;;;;;;21.27;6.93;;;;;;;;;;5136687;27;20381;-84
2023/05/08 05:21:18;;;;;;;24.50;7.32;;;;;;;;;;5118055;27;20062;-83
2023/05/08 05:23:43;;;;;;;14.02;6.93;;;;;;;;;;5100710;27;20019;-84
2023/05/08 05:26:09;;;;;;;18.02;6.65;;;;;;;;;;5117410;27;20385;-83
2023/05/08 05:28:34;;;;;;;13.93;6.03;;;;;;;;;;5117701;27;20030;-84
2023/05/08 05:31:00;;;;;;;14.20;5.63;;;;;;;;;;5084069;27;20051;-84
2023/05/08 05:33:25;;;;;;;16.23;5.85;;;;;;;;;;5100892;27;20051;-84
2023/05/08 05:35:50;;;;;;;13.27;5.60;;;;;;;;;;5118039;27;20050;-84
2023/05/08 05:38:16;;;;;;;12.90;5.80;;;;;;;;;;5136610;27;20382;-84
2023/05/08 05:40:41;;;;;;;12.45;5.82;;;;;;;;;;5101570;27;20101;-84
2023/05/08 05:43:07;;;;;;;9.65;5.03;;;;;;;;;;5120791;27;20031;-85
2023/05/08 05:45:32;;;;;;;9.70;4.85;;;;;;;;;;5101918;27;20440;-85
2023/05/08 05:47:57;;;;;;;13.02;4.93;;;;;;;;;;5117786;27;20031;-84
2023/05/08 05:50:23;;;;;;;10.15;5.22;;;;;;;;;;5137731;27;20094;-85
2023/05/08 05:52:48;;;;;;;9.52;4.78;;;;;;;;;;5136206;27;20054;-85
2023/05/08 05:55:14;;;;;;;6.85;4.50;;;;;;;;;;5136519;27;20062;-84
2023/05/08 05:57:39;;;;;;;10.43;4.57;;;;;;;;;;5120069;27;20417;-85
2023/05/08 06:00:05;;;;;;;12.02;4.53;;;;;;;;;;5135698;27;20027;-84
2023/05/08 06:02:32;;;;;;;7.10;4.28;;;;;;;;;;5100121;27;20038;-84
2023/05/08 06:04:58;;;;;;;9.10;4.32;;;;;;;;;;5100274;27;20477;-84
2023/05/08 06:07:24;;;;;;;7.05;4.35;;;;;;;;;;5116734;27;20055;-84
2023/05/08 06:09:50;;;;;;;8.10;4.22;;;;;;;;;;5137072;27;20042;-84
2023/05/08 06:12:17;;;;;;;7.38;4.00;;;;;;;;;;5137794;27;20062;-84
2023/05/08 06:14:42;;;;;;;8.32;4.43;;;;;;;;;;5102496;27;20031;-84
2023/05/08 06:17:07;;;;;;;6.03;4.13;;;;;;;;;;5102465;27;20524;-84
2023/05/08 06:19:33;;;;;;;5.70;4.25;;;;;;;;;;5117582;27;20087;-84
2023/05/08 06:21:58;;;;;;;5.43;4.20;;;;;;;;;;5108120;27;20038;-83
2023/05/08 06:24:24;;;;;;;6.57;4.15;;;;;;;;;;5119786;27;20068;-83
2023/05/08 06:26:49;;;;;;;5.18;3.80;;;;;;;;;;5105048;27;20495;-84
2023/05/08 06:29:15;;;;;;;6.03;4.15;;;;;;;;;;5104667;27;20118;-84
2023/05/08 06:31:40;;;;;;;5.35;4.35;;;;;;;;;;5122566;27;20035;-84
2023/05/08 06:34:06;;;;;;;4.95;3.95;;;;;;;;;;5140374;27;20038;-84
2023/05/08 06:36:31;;;;;;;6.93;4.30;;;;;;;;;;5119653;27;20038;-85
2023/05/08 06:38:56;;;;;;;5.75;3.72;;;;;;;;;;5117306;27;20027;-85
2023/05/08 06:41:22;;;;;;;4.03;3.65;;;;;;;;;;5135937;27;20493;-85
2023/05/08 06:43:47;;;;;;;4.47;4.05;;;;;;;;;;5102847;27;20481;-85
2023/05/08 06:46:12;;;;;;;4.80;4.10;;;;;;;;;;5136214;27;20079;-85
2023/05/08 06:48:38;;;;;;;6.00;3.85;;;;;;;;;;5117732;27;20038;-85
2023/05/08 06:51:03;;;;;;;4.80;3.75;;;;;;;;;;5103574;27;20027;-86
2023/05/08 06:53:29;;;;;;;4.60;3.97;;;;;;;;;;5118615;27;20084;-85
2023/05/08 06:55:56;;;;;;;6.00;3.97;;;;;;;;;;5137060;27;20124;-85
2023/05/08 06:58:22;;;;;;;4.70;4.13;;;;;;;;;;5118532;27;20030;-86
2023/05/08 07:00:47;;;;;;;5.47;3.75;;;;;;;;;;5100510;27;20028;-86
2023/05/08 07:03:12;;;;;;;4.22;3.80;;;;;;;;;;5099907;27;20027;-86
2023/05/08 07:05:38;;;;;;;5.20;3.60;;;;;;;;;;5135392;28;20027;-86
2023/05/08 07:08:03;;;;;;;4.13;3.65;;;;;;;;;;5062471;28;20047;-86
2023/05/08 07:10:29;;;;;;;4.53;3.92;;;;;;;;;;5096328;28;20039;-85
2023/05/08 07:12:54;;;;;;;8.02;3.90;;;;;;;;;;5114292;28;20020;-85
2023/05/08 07:15:20;;;;;;;5.60;3.90;;;;;;;;;;5063217;28;20038;-85
2023/05/08 07:17:46;;;;;;;4.85;4.10;;;;;;;;;;5095577;28;20110;-85
2023/05/08 07:20:11;;;;;;;5.07;3.70;;;;;;;;;;5095589;28;20110;-84
2023/05/08 07:22:37;;;;;;;5.25;4.30;;;;;;;;;;5114191;28;20534;-85
2023/05/08 07:25:03;;;;;;;3.92;3.20;;;;;;;;;;5095627;28;20020;-85
2023/05/08 07:27:29;;;;;;;3.72;3.40;;;;;;;;;;5078866;28;20363;-85
2023/05/08 07:29:56;;;;;;;7.10;3.65;;;;;;;;;;5096285;28;20030;-85
2023/05/08 07:32:21;;;;;;;4.25;3.85;;;;;;;;;;5098438;28;20057;-85
2023/05/08 07:34:47;;;;;;;4.18;3.60;;;;;;;;;;5122070;28;20363;-84
2023/05/08 07:37:12;;;;;;;4.30;3.63;;;;;;;;;;5114900;28;20088;-85
2023/05/08 07:39:38;;;;;;;4.20;3.75;;;;;;;;;;5125300;28;20015;-84
2023/05/08 07:42:03;;;;;;;4.10;3.75;;;;;;;;;;5083766;28;20062;-85
2023/05/08 07:44:32;;;;;;;4.65;3.95;;;;;;;;;;5118117;28;20047;-86
2023/05/08 07:46:57;;;;;;;5.32;4.20;;;;;;;;;;5083160;28;20088;-86
2023/05/08 07:49:23;;;;;;;5.43;4.28;;;;;;;;;;5099948;28;20066;-86
2023/05/08 07:51:48;;;;;;;4.97;3.90;;;;;;;;;;5117684;28;20108;-86
2023/05/08 07:54:14;;;;;;;4.22;3.83;;;;;;;;;;5117692;28;20027;-86
2023/05/08 07:56:39;;;;;;;4.72;4.30;;;;;;;;;;5099521;28;20099;-87
2023/05/08 07:59:04;;;;;;;4.95;4.25;;;;;;;;;;5083098;28;20111;-86
2023/05/08 08:01:30;;;;;;;4.35;3.95;;;;;;;;;;5099573;28;20031;-86
2023/05/08 08:03:55;;;;;;;4.65;4.25;;;;;;;;;;5099342;28;20042;-86
2023/05/08 08:06:21;;;;;;;5.40;4.30;;;;;;;;;;5102859;27;20039;-84
2023/05/08 08:08:46;;;;;;;5.93;4.13;;;;;;;;;;5102928;27;20089;-85
2023/05/08 08:11:12;;;;;;;5.18;4.10;;;;;;;;;;5103682;27;20490;-84
2023/05/08 08:13:37;;;;;;;4.22;3.83;;;;;;;;;;5138146;27;20037;-84
2023/05/08 08:16:03;;;;;;;4.50;4.10;;;;;;;;;;5119110;27;20027;-85
2023/05/08 08:18:28;;;;;;;5.20;4.53;;;;;;;;;;5137589;27;20392;-84
2023/05/08 08:20:54;;;;;;;4.50;4.10;;;;;;;;;;5119057;27;20027;-84
2023/05/08 08:23:19;;;;;;;5.75;4.05;;;;;;;;;;5119258;27;20027;-85
2023/05/08 08:25:45;;;;;;;4.35;3.95;;;;;;;;;;5102207;27;20481;-86
2023/05/08 08:28:11;;;;;;;5.53;4.50;;;;;;;;;;5119137;27;20042;-86
2023/05/08 08:30:36;;;;;;;5.20;4.05;;;;;;;;;;5102020;27;20051;-86
2023/05/08 08:33:02;;;;;;;4.95;4.32;;;;;;;;;;5119093;27;20045;-87
2023/05/08 08:35:29;;;;;;;4.78;4.03;;;;;;;;;;5119793;27;20031;-86
2023/05/08 08:37:55;;;;;;;6.15;4.30;;;;;;;;;;5119130;27;20080;-86
2023/05/08 08:40:21;;;;;;;4.82;4.40;;;;;;;;;;5118537;27;20027;-87
2023/05/08 08:42:46;;;;;;;4.80;4.18;;;;;;;;;;5118888;27;20046;-87
2023/05/08 08:45:12;;;;;;;4.70;4.20;;;;;;;;;;5141002;27;20039;-86
2023/05/08 08:47:43;;;;;;;5.32;4.70;;;;;;;;;;5121757;27;20496;-86
2023/05/08 08:50:09;;;;;;;5.53;4.10;;;;;;;;;;5102838;27;20427;-86
2023/05/08 08:53:02;;;;;;;5.50;4.35;;;;;;;;;;5138200;27;20062;-86
2023/05/08 08:55:29;;;;;;;4.63;4.22;;;;;;;;;;5136664;27;20080;-85
2023/05/08 08:58:36;;;;;;;5.78;4.63;;;;;;;;;;5118596;27;20164;-85
2023/05/08 09:01:02;;;;;;;4.53;4.13;;;;;;;;;;5136387;27;20042;-87
2023/05/08 09:03:32;;;;;;;4.68;4.22;;;;;;;;;;5118695;27;20102;-87
2023/05/08 09:06:01;;;;;;;4.93;4.35;;;;;;;;;;5118365;27;20041;-87
2023/05/08 09:08:28;;;;;;;5.30;4.80;;;;;;;;;;5136814;27;20051;-86
2023/05/08 09:10:54;;;;;;;4.85;4.35;;;;;;;;;;5101336;27;20404;-86
2023/05/08 09:13:20;;;;;;;5.18;4.68;;;;;;;;;;5118116;27;20035;-85
2023/05/08 09:15:45;;;;;;;6.28;4.90;;;;;;;;;;5118156;27;20076;-85
2023/05/08 09:18:11;;;;;;;4.68;4.28;;;;;;;;;;5101196;27;20084;-85
2023/05/08 09:20:39;;;;;;;4.97;4.32;;;;;;;;;;5118499;27;20023;-85
2023/05/08 09:23:05;;;;;;;5.30;4.80;;;;;;;;;;5118798;27;20106;-85
2023/05/08 09:25:44;;;;;;;5.47;4.68;;;;;;;;;;5119873;27;20119;-86
2023/05/08 09:28:20;;;;;;;4.78;4.38;;;;;;;;;;5119838;27;20026;-85
2023/05/08 09:30:56;;;;;;;4.80;4.40;;;;;;;;;;5105313;27;20093;-84
2023/05/08 09:33:24;;;;;;;4.47;4.07;;;;;;;;;;5119444;27;20034;-84
2023/05/08 09:35:50;;;;;;;5.07;4.57;;;;;;;;;;5118847;27;20030;-84
2023/05/08 09:38:34;;;;;;;4.78;4.35;;;;;;;;;;5136749;27;20031;-85
2023/05/08 09:41:16;;;;;;;4.78;4.38;;;;;;;;;;5117320;27;20489;-85
2023/05/08 09:43:43;;;;;;;5.65;4.63;;;;;;;;;;5136040;27;20031;-85
2023/05/08 09:46:25;;;;;;;5.10;4.60;;;;;;;;;;5119967;27;20427;-85
2023/05/08 09:48:53;;;;;;;6.75;4.57;;;;;;;;;;5119191;27;20386;-85
2023/05/08 09:51:19;;;;;;;5.00;4.55;;;;;;;;;;5123000;27;20019;-86
2023/05/08 09:53:45;;;;;;;4.78;4.22;;;;;;;;;;5105298;27;20121;-87
2023/05/08 09:56:10;;;;;;;5.35;4.78;;;;;;;;;;5100921;27;20583;-87
2023/05/08 09:58:43;;;;;;;5.68;4.70;;;;;;;;;;5100198;27;20035;-87
2023/05/08 10:01:27;;;;;;;6.07;4.68;;;;;;;;;;5117328;27;20031;-87
2023/05/08 10:03:52;;;;;;;5.18;4.68;;;;;;;;;;5135965;27;20381;-87
2023/05/08 10:06:18;;;;;;;4.88;4.38;;;;;;;;;;5099761;27;20039;-85
2023/05/08 10:08:45;;;;;;;6.03;5.00;;;;;;;;;;5116862;27;20042;-85
2023/05/08 10:11:17;;;;;;;5.10;4.60;;;;;;;;;;5135446;27;20107;-85
2023/05/08 10:13:46;;;;;;;4.80;4.40;;;;;;;;;;5116948;27;20031;-86
2023/05/08 10:16:16;;;;;;;4.90;4.50;;;;;;;;;;5099724;27;20375;-85
2023/05/08 10:18:47;;;;;;;4.95;4.35;;;;;;;;;;5135381;27;20109;-85
2023/05/08 10:21:14;;;;;;;6.05;4.45;;;;;;;;;;5099616;27;20031;-85
2023/05/08 10:23:41;;;;;;;5.00;4.57;;;;;;;;;;5099621;27;20030;-86
2023/05/08 10:26:12;;;;;;;5.20;4.70;;;;;;;;;;5099771;27;20019;-85
2023/05/08 10:28:47;;;;;;;4.88;4.40;;;;;;;;;;5116660;27;20491;-86
2023/05/08 10:31:16;;;;;;;4.72;4.22;;;;;;;;;;5099426;27;20027;-86
2023/05/08 10:33:43;;;;;;;5.05;4.40;;;;;;;;;;5099984;27;20453;-86
2023/05/08 10:36:09;;;;;;;4.63;4.07;;;;;;;;;;5135031;27;20027;-85
2023/05/08 10:38:36;;;;;;;4.85;4.30;;;;;;;;;;5099355;27;20375;-85
2023/05/08 10:41:02;;;;;;;4.53;4.13;;;;;;;;;;5116745;27;20064;-85
2023/05/08 10:43:28;;;;;;;4.50;4.10;;;;;;;;;;5116899;27;20537;-85
2023/05/08 10:45:55;;;;;;;6.18;5.03;;;;;;;;;;5099171;27;20033;-85
2023/05/08 10:48:47;;;;;;;7.57;4.80;;;;;;;;;;5099180;27;20026;-86
2023/05/08 10:51:22;;;;;;;6.72;4.47;;;;;;;;;;5116152;27;20031;-86
2023/05/08 10:53:53;;;;;;;5.45;4.72;;;;;;;;;;5116171;27;20023;-85
2023/05/08 10:56:25;;;;;;;6.00;4.43;;;;;;;;;;5116507;27;20069;-85
2023/05/08 10:58:57;;;;;;;5.07;4.43;;;;;;;;;;5116095;27;20022;-86
2023/05/08 11:01:26;;;;;;;7.75;4.65;;;;;;;;;;5116446;28;20113;-86
2023/05/08 11:03:54;;;;;;;5.13;4.63;;;;;;;;;;5116212;27;20110;-87
2023/05/08 11:06:42;;;;;;;8.05;4.97;;;;;;;;;;5116377;28;20043;-86
2023/05/08 11:09:07;;;;;;;8.15;4.93;;;;;;;;;;5116312;28;20015;-84
2023/05/08 11:11:37;;;;;;;6.28;4.50;;;;;;;;;;5118834;28;20493;-85
2023/05/08 11:14:10;;;;;;;6.18;4.60;;;;;;;;;;5098968;28;20031;-85
2023/05/08 11:16:55;;;;;;;5.32;4.82;;;;;;;;;;5116443;28;20023;-85
2023/05/08 11:19:21;;;;;;;5.65;4.75;;;;;;;;;;5134261;28;20100;-85
2023/05/08 11:22:12;;;;;;;5.70;4.93;;;;;;;;;;5115634;28;20027;-85
2023/05/08 11:24:39;;;;;;;5.32;4.82;;;;;;;;;;5134341;28;20477;-86
2023/05/08 11:27:04;;;;;;;5.35;4.85;;;;;;;;;;5135342;28;20110;-86
2023/05/08 11:29:30;;;;;;;6.10;4.70;;;;;;;;;;5134715;28;20463;-86
2023/05/08 11:31:55;;;;;;;5.13;4.63;;;;;;;;;;5116919;28;20118;-86
2023/05/08 11:34:42;;;;;;;5.20;4.60;;;;;;;;;;5134126;28;20023;-86
2023/05/08 11:37:09;;;;;;;4.50;4.10;;;;;;;;;;5134062;28;20069;-84
2023/05/08 11:39:34;;;;;;;6.13;4.47;;;;;;;;;;5098999;28;20030;-85
2023/05/08 11:42:25;;;;;;;5.70;4.18;;;;;;;;;;5115782;28;20027;-85
2023/05/08 11:45:11;;;;;;;5.88;4.32;;;;;;;;;;5115505;28;20035;-85
2023/05/08 11:47:38;;;;;;;5.00;4.50;;;;;;;;;;5098568;28;20023;-85
2023/05/08 11:50:04;;;;;;;5.28;4.78;;;;;;;;;;5116300;28;20045;-86
2023/05/08 11:52:37;;;;;;;4.97;4.53;;;;;;;;;;5116773;28;20031;-87
2023/05/08 11:55:10;;;;;;;6.25;4.68;;;;;;;;;;5116559;28;20480;-86
2023/05/08 11:57:36;;;;;;;6.65;4.95;;;;;;;;;;5099766;28;20432;-86
2023/05/08 12:00:06;;;;;;;6.85;5.10;;;;;;;;;;5116832;28;20023;-87
2023/05/08 12:02:40;;;;;;;5.45;4.68;;;;;;;;;;5099493;28;20030;-87
2023/05/08 12:05:07;;;;;;;5.25;4.75;;;;;;;;;;5099169;28;20019;-86
2023/05/08 12:07:32;;;;;;;5.28;4.78;;;;;;;;;;5134941;28;20055;-86
2023/05/08 12:10:00;;;;;;;7.10;5.05;;;;;;;;;;5099354;28;20031;-86
2023/05/08 12:12:36;;;;;;;6.38;5.28;;;;;;;;;;5116539;28;20054;-87
2023/05/08 12:15:08;;;;;;;7.63;5.53;;;;;;;;;;5100524;28;20110;-86
2023/05/08 12:17:34;;;;;;;6.63;5.60;;;;;;;;;;5099801;28;20489;-88
2023/05/08 12:20:13;;;;;;;7.22;5.88;;;;;;;;;;5116639;28;20041;-87
2023/05/08 12:22:42;;;;;;;7.72;6.10;;;;;;;;;;5117698;27;20027;-88
2023/05/08 12:25:10;;;;;;;7.30;6.20;;;;;;;;;;5120235;27;20428;-88
2023/05/08 12:27:36;;;;;;;6.95;5.80;;;;;;;;;;5121068;27;20026;-88
2023/05/08 12:30:07;;;;;;;7.30;6.28;;;;;;;;;;5140749;27;20028;-87
2023/05/08 12:32:33;;;;;;;7.43;6.07;;;;;;;;;;5086844;27;20474;-86
2023/05/08 12:34:59;;;;;;;8.10;6.40;;;;;;;;;;5120309;27;20343;-87
2023/05/08 12:37:28;;;;;;;8.40;7.18;;;;;;;;;;5121420;27;20031;-88
2023/05/08 12:39:54;;;;;;;8.40;7.00;;;;;;;;;;5123580;27;20054;-87
2023/05/08 12:42:20;;;;;;;8.45;7.20;;;;;;;;;;5104641;27;20477;-88
2023/05/08 12:44:52;;;;;;;9.55;7.25;;;;;;;;;;5103599;27;20054;-89
2023/05/08 12:47:21;;;;;;;8.85;7.60;;;;;;;;;;5103095;27;20149;-88
2023/05/08 12:49:48;;;;;;;9.68;7.80;;;;;;;;;;5103585;27;20079;-87
2023/05/08 12:52:14;;;;;;;9.45;7.65;;;;;;;;;;5106092;27;20033;-86
2023/05/08 12:54:45;;;;;;;8.52;7.43;;;;;;;;;;5143250;27;20047;-86
2023/05/08 12:57:10;;;;;;;9.45;7.25;;;;;;;;;;5124573;27;20023;-87
2023/05/08 12:59:36;;;;;;;9.10;7.40;;;;;;;;;;5126823;27;20031;-86
2023/05/08 13:02:02;;;;;;;10.45;7.50;;;;;;;;;;5126215;27;20031;-85
2023/05/08 13:04:28;;;;;;;9.98;7.78;;;;;;;;;;5125047;27;20465;-85
2023/05/08 13:06:55;;;;;;;9.73;7.25;;;;;;;;;;5113237;27;20054;-85
2023/05/08 13:09:22;;;;;;;11.40;7.85;;;;;;;;;;5124595;27;20184;-85
2023/05/08 13:11:47;;;;;;;9.20;7.70;;;;;;;;;;5109899;27;20019;-85
2023/05/08 13:14:13;;;;;;;8.45;7.28;;;;;;;;;;5132630;27;20458;-86
2023/05/08 13:16:43;;;;;;;9.48;7.13;;;;;;;;;;5131515;27;20027;-85
2023/05/08 13:19:08;;;;;;;9.65;7.85;;;;;;;;;;5137673;27;20105;-85
2023/05/08 13:21:34;;;;;;;10.30;7.97;;;;;;;;;;5085041;27;20054;-85
2023/05/08 13:24:00;;;;;;;7.57;6.70;;;;;;;;;;5136756;27;20034;-87
2023/05/08 13:26:25;;;;;;;8.45;6.78;;;;;;;;;;5118399;27;20046;-87
2023/05/08 13:28:51;;;;;;;11.95;7.68;;;;;;;;;;5118326;27;20031;-87
2023/05/08 13:31:16;;;;;;;9.55;7.20;;;;;;;;;;5136306;27;20031;-86
2023/05/08 13:33:41;;;;;;;9.05;7.60;;;;;;;;;;5101099;27;20035;-84
2023/05/08 13:36:07;;;;;;;9.23;7.15;;;;;;;;;;5101035;27;20554;-85
2023/05/08 13:38:33;;;;;;;9.73;7.13;;;;;;;;;;5118025;27;20114;-85
2023/05/08 13:40:59;;;;;;;9.05;6.22;;;;;;;;;;5136271;27;20106;-85
2023/05/08 13:43:24;;;;;;;8.43;6.68;;;;;;;;;;5117937;27;20102;-85
2023/05/08 13:45:50;;;;;;;7.65;6.63;;;;;;;;;;5135981;27;20487;-84
2023/05/08 13:48:15;;;;;;;10.43;6.82;;;;;;;;;;5118459;27;20050;-84
2023/05/08 13:50:41;;;;;;;7.88;6.13;;;;;;;;;;5100558;27;20028;-84
2023/05/08 13:53:06;;;;;;;8.43;6.43;;;;;;;;;;5100717;27;20027;-84
2023/05/08 13:55:32;;;;;;;7.30;6.07;;;;;;;;;;5117707;27;20045;-85
2023/05/08 13:57:57;;;;;;;8.98;6.00;;;;;;;;;;5100983;27;20038;-84
2023/05/08 14:00:23;;;;;;;7.40;5.82;;;;;;;;;;5100484;27;20084;-85
2023/05/08 14:02:48;;;;;;;6.80;5.93;;;;;;;;;;5117712;27;20058;-85
2023/05/08 14:05:14;;;;;;;6.22;5.63;;;;;;;;;;5137362;27;20378;-85
2023/05/08 14:07:39;;;;;;;6.32;5.43;;;;;;;;;;5118548;27;20082;-86
2023/05/08 14:10:05;;;;;;;7.43;6.18;;;;;;;;;;5118806;27;20065;-85
2023/05/08 14:12:34;;;;;;;7.53;5.60;;;;;;;;;;5137329;27;20035;-85
2023/05/08 14:15:00;;;;;;;8.75;6.20;;;;;;;;;;5141150;27;20034;-85
2023/05/08 14:17:26;;;;;;;6.53;5.68;;;;;;;;;;5122900;27;20042;-85
2023/05/08 14:19:51;;;;;;;7.45;5.60;;;;;;;;;;5153025;27;20099;-84
2023/05/08 14:22:17;;;;;;;7.68;5.95;;;;;;;;;;5105086;27;20445;-85
2023/05/08 14:24:43;;;;;;;6.35;5.38;;;;;;;;;;5101415;27;20389;-84
2023/05/08 14:27:09;;;;;;;6.18;5.28;;;;;;;;;;5089706;27;20486;-86
2023/05/08 14:29:34;;;;;;;6.20;5.20;;;;;;;;;;5124666;27;20019;-86
2023/05/08 14:32:00;;;;;;;5.40;4.90;;;;;;;;;;5136205;27;20080;-84
2023/05/08 14:34:25;;;;;;;5.72;5.07;;;;;;;;;;5135394;27;20107;-84
2023/05/08 14:36:51;;;;;;;5.53;4.97;;;;;;;;;;5117011;27;20140;-85
2023/05/08 14:39:16;;;;;;;7.53;5.80;;;;;;;;;;5116926;27;20031;-87
2023/05/08 14:41:41;;;;;;;5.95;5.35;;;;;;;;;;5117081;27;20389;-85
2023/05/08 14:44:07;;;;;;;6.05;4.78;;;;;;;;;;5117043;27;20031;-86
2023/05/08 14:46:32;;;;;;;7.32;5.57;;;;;;;;;;5116073;27;20035;-88
2023/05/08 14:48:58;;;;;;;8.70;6.00;;;;;;;;;;5099734;27;20034;-85